sensor_id;sensor_type;location;lat;lon;timestamp;pressure;altitude;pressure_sealevel;temperature;humidity
57094;BME280;42970;50.996;3.706;2023-02-03T00:00:24;76150.47;;;-146.65;100.00
57094;BME280;42970;50.996;3.706;2023-02-03T00:02:53;76156.53;;;-146.65;100.00
57094;BME280;42970;50.996;3.706;2023-02-03T00:05:18;76140.38;;;-146.65;100.00
57094;BME280;42970;50.996;3.706;2023-02-03T00:07:43;76150.47;;;-146.65;100.00
57094;BME280;42970;50.996;3.706;2023-02-03T00:10:09;76132.31;;;-146.65;100.00
57094;BME280;42970;50.996;3.706;2023-02-03T00:12:34;76134.31;;;-146.65;100.00
57094;BME280;42970;50.996;3.706;2023-02-03T00:14:59;76136.34;;;-146.65;100.00
57094;BME280;42970;50.996;3.706;2023-02-03T00:17:25;76130.28;;;-146.65;100.00
57094;BME280;42970;50.996;3.706;2023-02-03T00:19:50;76134.31;;;-146.65;100.00
57094;BME280;42970;50.996;3.706;2023-02-03T00:22:15;76122.22;;;-146.65;100.00
57094;BME280;42970;50.996;3.706;2023-02-03T00:24:41;76126.25;;;-146.65;100.00
57094;BME280;42970;50.996;3.706;2023-02-03T00:27:06;76130.28;;;-146.65;100.00
57094;BME280;42970;50.996;3.706;2023-02-03T00:29:32;76132.31;;;-146.65;100.00
57094;BME280;42970;50.996;3.706;2023-02-03T00:31:57;76126.25;;;-146.65;100.00
57094;BME280;42970;50.996;3.706;2023-02-03T00:34:26;76124.25;;;-146.65;100.00
57094;BME280;42970;50.996;3.706;2023-02-03T00:36:51;76140.38;;;-146.65;100.00
57094;BME280;42970;50.996;3.706;2023-02-03T00:39:17;76142.41;;;-146.65;100.00
57094;BME280;42970;50.996;3.706;2023-02-03T00:41:42;76142.41;;;-146.65;100.00
57094;BME280;42970;50.996;3.706;2023-02-03T00:44:07;76132.31;;;-146.65;100.00
57094;BME280;42970;50.996;3.706;2023-02-03T00:46:33;76130.28;;;-146.65;100.00
57094;BME280;42970;50.996;3.706;2023-02-03T00:49:00;76146.44;;;-146.65;100.00
57094;BME280;42970;50.996;3.706;2023-02-03T00:51:25;76144.41;;;-146.65;100.00
57094;BME280;42970;50.996;3.706;2023-02-03T00:53:51;76150.47;;;-146.65;100.00
57094;BME280;42970;50.996;3.706;2023-02-03T00:56:16;76146.44;;;-146.65;100.00
57094;BME280;42970;50.996;3.706;2023-02-03T00:58:41;76136.34;;;-146.65;100.00
57094;BME280;42970;50.996;3.706;2023-02-03T01:01:07;76150.47;;;-146.65;100.00
57094;BME280;42970;50.996;3.706;2023-02-03T01:03:32;76150.47;;;-146.65;100.00
57094;BME280;42970;50.996;3.706;2023-02-03T01:06:07;76158.53;;;-146.65;100.00
57094;BME280;42970;50.996;3.706;2023-02-03T01:08:33;76166.59;;;-146.65;100.00
57094;BME280;42970;50.996;3.706;2023-02-03T01:10:58;76174.69;;;-146.65;100.00
57094;BME280;42970;50.996;3.706;2023-02-03T01:13:23;76160.56;;;-146.65;100.00
57094;BME280;42970;50.996;3.706;2023-02-03T01:15:49;76166.59;;;-146.65;100.00
57094;BME280;42970;50.996;3.706;2023-02-03T01:18:14;76160.56;;;-146.65;100.00
57094;BME280;42970;50.996;3.706;2023-02-03T01:20:39;76158.53;;;-146.65;100.00
57094;BME280;42970;50.996;3.706;2023-02-03T01:23:05;76170.66;;;-146.65;100.00
57094;BME280;42970;50.996;3.706;2023-02-03T01:25:30;76158.53;;;-146.65;100.00
57094;BME280;42970;50.996;3.706;2023-02-03T01:27:55;76164.59;;;-146.65;100.00
57094;BME280;42970;50.996;3.706;2023-02-03T01:30:20;76176.69;;;-146.65;100.00
57094;BME280;42970;50.996;3.706;2023-02-03T01:32:46;76188.78;;;-146.65;100.00
57094;BME280;42970;50.996;3.706;2023-02-03T01:35:11;76188.78;;;-146.65;100.00
57094;BME280;42970;50.996;3.706;2023-02-03T01:37:36;76190.81;;;-146.65;100.00
57094;BME280;42970;50.996;3.706;2023-02-03T01:40:02;76182.75;;;-146.65;100.00
57094;BME280;42970;50.996;3.706;2023-02-03T01:42:27;76190.81;;;-146.65;100.00
57094;BME280;42970;50.996;3.706;2023-02-03T01:44:56;76184.75;;;-146.65;100.00
57094;BME280;42970;50.996;3.706;2023-02-03T01:52:50;76182.75;;;-146.65;100.00
57094;BME280;42970;50.996;3.706;2023-02-03T01:55:18;76180.72;;;-146.65;100.00
57094;BME280;42970;50.996;3.706;2023-02-03T01:57:46;76190.81;;;-146.65;99.88
57094;BME280;42970;50.996;3.706;2023-02-03T02:00:14;76182.75;;;-146.65;99.87
57094;BME280;42970;50.996;3.706;2023-02-03T02:02:40;76176.69;;;-146.65;99.51
57094;BME280;42970;50.996;3.706;2023-02-03T02:07:47;76178.72;;;-146.65;99.11
57094;BME280;42970;50.996;3.706;2023-02-03T02:10:12;76166.59;;;-146.65;99.13
57094;BME280;42970;50.996;3.706;2023-02-03T02:12:37;76174.69;;;-146.65;99.16
57094;BME280;42970;50.996;3.706;2023-02-03T02:15:03;76168.63;;;-146.65;98.82
57094;BME280;42970;50.996;3.706;2023-02-03T02:17:37;76162.56;;;-146.65;99.04
57094;BME280;42970;50.996;3.706;2023-02-03T02:20:23;76154.50;;;-146.65;99.04
57094;BME280;42970;50.996;3.706;2023-02-03T02:30:48;76162.56;;;-146.65;99.93
57094;BME280;42970;50.996;3.706;2023-02-03T02:38:47;76154.50;;;-146.65;100.00
57094;BME280;42970;50.996;3.706;2023-02-03T02:44:03;76144.41;;;-146.65;99.51
57094;BME280;42970;50.996;3.706;2023-02-03T02:46:42;76144.41;;;-146.65;99.65
57094;BME280;42970;50.996;3.706;2023-02-03T02:51:44;76140.38;;;-146.65;99.88
57094;BME280;42970;50.996;3.706;2023-02-03T02:54:13;76144.41;;;-146.65;99.43
57094;BME280;42970;50.996;3.706;2023-02-03T02:56:40;76164.59;;;-146.65;99.28
57094;BME280;42970;50.996;3.706;2023-02-03T02:59:07;76150.47;;;-146.65;99.43
57094;BME280;42970;50.996;3.706;2023-02-03T03:01:33;76166.59;;;-146.65;99.16
57094;BME280;42970;50.996;3.706;2023-02-03T03:03:59;76166.59;;;-146.65;99.07
57094;BME280;42970;50.996;3.706;2023-02-03T03:06:33;76164.59;;;-146.65;99.38
57094;BME280;42970;50.996;3.706;2023-02-03T03:09:20;76164.59;;;-146.65;99.21
57094;BME280;42970;50.996;3.706;2023-02-03T03:11:48;76154.50;;;-146.65;98.74
57094;BME280;42970;50.996;3.706;2023-02-03T03:14:14;76164.59;;;-146.65;98.78
57094;BME280;42970;50.996;3.706;2023-02-03T03:16:42;76132.31;;;-146.65;98.79
57094;BME280;42970;50.996;3.706;2023-02-03T03:19:09;76142.41;;;-146.65;98.61
57094;BME280;42970;50.996;3.706;2023-02-03T03:21:41;76146.44;;;-146.65;98.42
57094;BME280;42970;50.996;3.706;2023-02-03T03:24:09;76154.50;;;-146.65;98.31
57094;BME280;42970;50.996;3.706;2023-02-03T03:29:09;76138.38;;;-146.65;98.04
57094;BME280;42970;50.996;3.706;2023-02-03T03:31:37;76142.41;;;-146.65;98.05
57094;BME280;42970;50.996;3.706;2023-02-03T03:34:03;76132.31;;;-146.65;97.75
57094;BME280;42970;50.996;3.706;2023-02-03T03:36:34;76144.41;;;-146.65;97.89
57094;BME280;42970;50.996;3.706;2023-02-03T03:39:08;76148.44;;;-146.65;98.21
57094;BME280;42970;50.996;3.706;2023-02-03T03:41:40;76134.31;;;-146.65;97.77
57094;BME280;42970;50.996;3.706;2023-02-03T03:44:09;76134.31;;;-146.65;97.59
57094;BME280;42970;50.996;3.706;2023-02-03T03:46:38;76130.28;;;-146.65;97.53
57094;BME280;42970;50.996;3.706;2023-02-03T03:49:05;76146.44;;;-146.65;97.88
57094;BME280;42970;50.996;3.706;2023-02-03T03:51:39;76130.28;;;-146.65;97.52
57094;BME280;42970;50.996;3.706;2023-02-03T03:54:09;76122.22;;;-146.65;97.39
57094;BME280;42970;50.996;3.706;2023-02-03T03:56:40;76132.31;;;-146.65;96.94
57094;BME280;42970;50.996;3.706;2023-02-03T03:59:09;76134.31;;;-146.65;97.04
57094;BME280;42970;50.996;3.706;2023-02-03T04:01:36;76132.31;;;-146.65;96.61
57094;BME280;42970;50.996;3.706;2023-02-03T04:04:04;76138.38;;;-146.65;96.43
57094;BME280;42970;50.996;3.706;2023-02-03T04:06:30;76118.19;;;-146.65;96.25
57094;BME280;42970;50.996;3.706;2023-02-03T04:08:56;76122.22;;;-146.65;96.42
57094;BME280;42970;50.996;3.706;2023-02-03T04:11:21;76104.06;;;-146.65;96.36
57094;BME280;42970;50.996;3.706;2023-02-03T04:14:05;76126.25;;;-146.65;96.35
57094;BME280;42970;50.996;3.706;2023-02-03T04:16:31;76126.25;;;-146.65;96.42
57094;BME280;42970;50.996;3.706;2023-02-03T04:18:56;76134.31;;;-146.65;96.95
57094;BME280;42970;50.996;3.706;2023-02-03T04:21:21;76134.31;;;-146.65;96.95
57094;BME280;42970;50.996;3.706;2023-02-03T04:23:47;76124.25;;;-146.65;97.32
57094;BME280;42970;50.996;3.706;2023-02-03T04:26:12;76138.38;;;-146.65;97.49
57094;BME280;42970;50.996;3.706;2023-02-03T04:28:38;76136.34;;;-146.65;97.99
57094;BME280;42970;50.996;3.706;2023-02-03T04:31:03;76126.25;;;-146.65;98.07
57094;BME280;42970;50.996;3.706;2023-02-03T04:33:28;76124.25;;;-146.65;98.07
57094;BME280;42970;50.996;3.706;2023-02-03T04:35:54;76142.41;;;-146.65;97.74
57094;BME280;42970;50.996;3.706;2023-02-03T04:38:19;76136.34;;;-146.65;97.44
57094;BME280;42970;50.996;3.706;2023-02-03T04:40:45;76138.38;;;-146.65;97.47
57094;BME280;42970;50.996;3.706;2023-02-03T04:43:10;76146.44;;;-146.65;97.59
57094;BME280;42970;50.996;3.706;2023-02-03T04:45:36;76126.25;;;-146.65;97.49
57094;BME280;42970;50.996;3.706;2023-02-03T04:48:02;76146.44;;;-146.65;97.57
57094;BME280;42970;50.996;3.706;2023-02-03T04:50:28;76162.56;;;-146.65;97.35
57094;BME280;42970;50.996;3.706;2023-02-03T04:52:54;76142.41;;;-146.65;97.06
57094;BME280;42970;50.996;3.706;2023-02-03T04:55:19;76162.56;;;-146.65;97.28
57094;BME280;42970;50.996;3.706;2023-02-03T04:57:44;76148.44;;;-146.65;96.98
57094;BME280;42970;50.996;3.706;2023-02-03T05:00:10;76150.47;;;-146.65;96.71
57094;BME280;42970;50.996;3.706;2023-02-03T05:02:35;76166.59;;;-146.65;97.11
57094;BME280;42970;50.996;3.706;2023-02-03T05:05:00;76162.56;;;-146.65;96.76
57094;BME280;42970;50.996;3.706;2023-02-03T05:07:26;76156.53;;;-146.65;96.44
57094;BME280;42970;50.996;3.706;2023-02-03T05:09:51;76146.44;;;-146.65;96.23
57094;BME280;42970;50.996;3.706;2023-02-03T05:12:17;76156.53;;;-146.65;96.35
57094;BME280;42970;50.996;3.706;2023-02-03T05:14:42;76156.53;;;-146.65;96.34
57094;BME280;42970;50.996;3.706;2023-02-03T05:17:08;76152.50;;;-146.65;96.23
57094;BME280;42970;50.996;3.706;2023-02-03T05:19:33;76146.44;;;-146.65;95.89
57094;BME280;42970;50.996;3.706;2023-02-03T05:21:58;76138.38;;;-146.65;94.93
57094;BME280;42970;50.996;3.706;2023-02-03T05:24:23;76138.38;;;-146.65;94.84
57094;BME280;42970;50.996;3.706;2023-02-03T05:26:49;76138.38;;;-146.65;94.65
57094;BME280;42970;50.996;3.706;2023-02-03T05:29:14;76134.31;;;-146.65;94.54
57094;BME280;42970;50.996;3.706;2023-02-03T05:31:39;76142.41;;;-146.65;94.50
57094;BME280;42970;50.996;3.706;2023-02-03T05:34:04;76152.50;;;-146.65;94.44
57094;BME280;42970;50.996;3.706;2023-02-03T05:36:30;76148.44;;;-146.65;94.14
57094;BME280;42970;50.996;3.706;2023-02-03T05:38:55;76144.41;;;-146.65;93.59
57094;BME280;42970;50.996;3.706;2023-02-03T05:41:20;76150.47;;;-146.65;93.97
57094;BME280;42970;50.996;3.706;2023-02-03T05:44:04;76134.31;;;-146.65;93.51
57094;BME280;42970;50.996;3.706;2023-02-03T05:46:29;76144.41;;;-146.65;93.85
57094;BME280;42970;50.996;3.706;2023-02-03T05:48:55;76148.44;;;-146.65;93.36
57094;BME280;42970;50.996;3.706;2023-02-03T05:51:20;76160.56;;;-146.65;93.30
57094;BME280;42970;50.996;3.706;2023-02-03T05:53:45;76158.53;;;-146.65;93.72
57094;BME280;42970;50.996;3.706;2023-02-03T05:56:11;76154.50;;;-146.65;93.82
57094;BME280;42970;50.996;3.706;2023-02-03T05:58:36;76146.44;;;-146.65;93.59
57094;BME280;42970;50.996;3.706;2023-02-03T06:01:01;76150.47;;;-146.65;93.95
57094;BME280;42970;50.996;3.706;2023-02-03T06:03:26;76146.44;;;-146.65;94.04
57094;BME280;42970;50.996;3.706;2023-02-03T06:05:52;76152.50;;;-146.65;94.52
57094;BME280;42970;50.996;3.706;2023-02-03T06:08:17;76138.38;;;-146.65;94.74
57094;BME280;42970;50.996;3.706;2023-02-03T06:10:42;76154.50;;;-146.65;94.45
57094;BME280;42970;50.996;3.706;2023-02-03T06:13:12;76140.38;;;-146.65;94.35
57094;BME280;42970;50.996;3.706;2023-02-03T06:15:38;76142.41;;;-146.65;94.52
57094;BME280;42970;50.996;3.706;2023-02-03T06:18:03;76150.47;;;-146.65;94.87
57094;BME280;42970;50.996;3.706;2023-02-03T06:20:28;76148.44;;;-146.65;94.63
57094;BME280;42970;50.996;3.706;2023-02-03T06:22:54;76160.56;;;-146.65;94.94
57094;BME280;42970;50.996;3.706;2023-02-03T06:25:19;76162.56;;;-146.65;95.46
57094;BME280;42970;50.996;3.706;2023-02-03T06:27:44;76164.59;;;-146.65;95.56
57094;BME280;42970;50.996;3.706;2023-02-03T06:30:10;76152.50;;;-146.65;95.55
57094;BME280;42970;50.996;3.706;2023-02-03T06:32:35;76164.59;;;-146.65;95.42
57094;BME280;42970;50.996;3.706;2023-02-03T06:35:01;76170.66;;;-146.65;95.78
57094;BME280;42970;50.996;3.706;2023-02-03T06:37:26;76150.47;;;-146.65;95.73
57094;BME280;42970;50.996;3.706;2023-02-03T06:39:51;76156.53;;;-146.65;95.68
57094;BME280;42970;50.996;3.706;2023-02-03T06:42:17;76162.56;;;-146.65;95.71
57094;BME280;42970;50.996;3.706;2023-02-03T06:44:42;76146.44;;;-146.65;95.68
57094;BME280;42970;50.996;3.706;2023-02-03T06:47:08;76182.75;;;-146.65;96.54
57094;BME280;42970;50.996;3.706;2023-02-03T06:49:33;76190.81;;;-146.65;96.82
57094;BME280;42970;50.996;3.706;2023-02-03T06:51:58;76178.72;;;-146.65;96.70
57094;BME280;42970;50.996;3.706;2023-02-03T06:54:24;76188.78;;;-146.65;96.85
57094;BME280;42970;50.996;3.706;2023-02-03T06:56:49;76166.59;;;-146.65;96.84
57094;BME280;42970;50.996;3.706;2023-02-03T06:59:14;76162.56;;;-146.65;97.34
57094;BME280;42970;50.996;3.706;2023-02-03T07:01:40;76170.66;;;-146.65;97.59
57094;BME280;42970;50.996;3.706;2023-02-03T07:04:05;76172.66;;;-146.65;97.41
57094;BME280;42970;50.996;3.706;2023-02-03T07:06:31;76178.72;;;-146.65;97.23
57094;BME280;42970;50.996;3.706;2023-02-03T07:08:59;76186.78;;;-146.65;97.09
57094;BME280;42970;50.996;3.706;2023-02-03T07:11:24;76176.69;;;-146.65;97.39
57094;BME280;42970;50.996;3.706;2023-02-03T07:13:50;76178.72;;;-146.65;97.48
57094;BME280;42970;50.996;3.706;2023-02-03T07:16:16;76168.63;;;-146.65;97.04
57094;BME280;42970;50.996;3.706;2023-02-03T07:18:41;76164.59;;;-146.65;97.04
57094;BME280;42970;50.996;3.706;2023-02-03T07:21:06;76156.53;;;-146.65;96.97
57094;BME280;42970;50.996;3.706;2023-02-03T07:23:32;76178.72;;;-146.65;96.94
57094;BME280;42970;50.996;3.706;2023-02-03T07:25:58;76166.59;;;-146.65;97.13
57094;BME280;42970;50.996;3.706;2023-02-03T07:28:23;76172.66;;;-146.65;97.35
57094;BME280;42970;50.996;3.706;2023-02-03T07:30:48;76178.72;;;-146.65;97.40
57094;BME280;42970;50.996;3.706;2023-02-03T07:33:14;76188.78;;;-146.65;97.79
57094;BME280;42970;50.996;3.706;2023-02-03T07:35:39;76182.75;;;-146.65;97.63
57094;BME280;42970;50.996;3.706;2023-02-03T07:38:07;76206.97;;;-146.65;97.64
57094;BME280;42970;50.996;3.706;2023-02-03T07:40:36;76217.03;;;-146.65;97.42
57094;BME280;42970;50.996;3.706;2023-02-03T07:43:01;76204.94;;;-146.65;97.12
57094;BME280;42970;50.996;3.706;2023-02-03T07:45:26;76192.84;;;-146.65;96.74
57094;BME280;42970;50.996;3.706;2023-02-03T07:47:52;76182.75;;;-146.65;96.61
57094;BME280;42970;50.996;3.706;2023-02-03T07:50:18;76188.78;;;-146.65;96.22
57094;BME280;42970;50.996;3.706;2023-02-03T07:52:43;76194.84;;;-146.65;96.25
57094;BME280;42970;50.996;3.706;2023-02-03T07:55:08;76204.94;;;-146.65;96.59
57094;BME280;42970;50.996;3.706;2023-02-03T07:57:34;76215.03;;;-146.65;96.74
57094;BME280;42970;50.996;3.706;2023-02-03T07:59:59;76204.94;;;-146.65;97.39
57094;BME280;42970;50.996;3.706;2023-02-03T08:02:27;76211.00;;;-146.65;97.23
57094;BME280;42970;50.996;3.706;2023-02-03T08:04:52;76213.00;;;-146.65;96.82
57094;BME280;42970;50.996;3.706;2023-02-03T08:07:18;76206.97;;;-146.65;97.31
57094;BME280;42970;50.996;3.706;2023-02-03T08:09:43;76219.06;;;-146.65;97.20
57094;BME280;42970;50.996;3.706;2023-02-03T08:12:08;76231.16;;;-146.65;97.45
57094;BME280;42970;50.996;3.706;2023-02-03T08:14:34;76227.13;;;-146.65;97.15
57094;BME280;42970;50.996;3.706;2023-02-03T08:16:59;76237.22;;;-146.65;97.13
57094;BME280;42970;50.996;3.706;2023-02-03T08:19:24;76225.13;;;-146.65;97.06
57094;BME280;42970;50.996;3.706;2023-02-03T08:21:50;76235.19;;;-146.65;97.40
57094;BME280;42970;50.996;3.706;2023-02-03T08:24:15;76223.09;;;-146.65;97.29
57094;BME280;42970;50.996;3.706;2023-02-03T08:26:40;76215.03;;;-146.65;97.29
57094;BME280;42970;50.996;3.706;2023-02-03T08:29:06;76225.13;;;-146.65;97.14
57094;BME280;42970;50.996;3.706;2023-02-03T08:31:31;76198.88;;;-146.65;96.79
57094;BME280;42970;50.996;3.706;2023-02-03T08:33:57;76206.97;;;-146.65;96.68
57094;BME280;42970;50.996;3.706;2023-02-03T08:36:22;76219.06;;;-146.65;97.07
57094;BME280;42970;50.996;3.706;2023-02-03T08:38:47;76229.16;;;-146.65;96.72
57094;BME280;42970;50.996;3.706;2023-02-03T08:41:14;76202.91;;;-146.65;96.59
57094;BME280;42970;50.996;3.706;2023-02-03T08:43:40;76190.81;;;-146.65;96.20
57094;BME280;42970;50.996;3.706;2023-02-03T08:46:06;76192.84;;;-146.65;96.66
57094;BME280;42970;50.996;3.706;2023-02-03T08:48:32;76204.94;;;-146.65;96.99
57094;BME280;42970;50.996;3.706;2023-02-03T08:50:57;76206.97;;;-146.65;96.66
57094;BME280;42970;50.996;3.706;2023-02-03T08:53:23;76198.88;;;-146.65;96.50
57094;BME280;42970;50.996;3.706;2023-02-03T08:55:48;76192.84;;;-146.65;96.34
57094;BME280;42970;50.996;3.706;2023-02-03T08:58:13;76186.78;;;-146.65;95.90
57094;BME280;42970;50.996;3.706;2023-02-03T09:00:39;76188.78;;;-146.65;96.42
57094;BME280;42970;50.996;3.706;2023-02-03T09:03:04;76190.81;;;-146.65;96.70
57094;BME280;42970;50.996;3.706;2023-02-03T09:05:30;76188.78;;;-146.65;96.87
57094;BME280;42970;50.996;3.706;2023-02-03T09:07:55;76194.84;;;-146.65;96.51
57094;BME280;42970;50.996;3.706;2023-02-03T09:10:20;76206.97;;;-146.65;96.47
57094;BME280;42970;50.996;3.706;2023-02-03T09:12:46;76202.91;;;-146.65;95.86
57094;BME280;42970;50.996;3.706;2023-02-03T09:15:11;76211.00;;;-146.65;96.42
57094;BME280;42970;50.996;3.706;2023-02-03T09:17:36;76208.97;;;-146.65;96.06
57094;BME280;42970;50.996;3.706;2023-02-03T09:20:01;76206.97;;;-146.65;95.69
57094;BME280;42970;50.996;3.706;2023-02-03T09:22:27;76223.09;;;-146.65;95.66
57094;BME280;42970;50.996;3.706;2023-02-03T09:24:52;76194.84;;;-146.65;96.29
57094;BME280;42970;50.996;3.706;2023-02-03T09:27:17;76182.75;;;-146.65;94.88
57094;BME280;42970;50.996;3.706;2023-02-03T09:29:43;76190.81;;;-146.65;95.11
57094;BME280;42970;50.996;3.706;2023-02-03T09:32:08;76194.84;;;-146.65;94.99
57094;BME280;42970;50.996;3.706;2023-02-03T09:34:35;76200.91;;;-146.65;95.37
57094;BME280;42970;50.996;3.706;2023-02-03T09:37:00;76194.84;;;-146.65;95.52
57094;BME280;42970;50.996;3.706;2023-02-03T09:39:25;76194.84;;;-146.65;95.45
57094;BME280;42970;50.996;3.706;2023-02-03T09:46:52;76202.91;;;-146.65;96.09
57094;BME280;42970;50.996;3.706;2023-02-03T09:51:55;76154.50;;;-146.65;94.71
57094;BME280;42970;50.996;3.706;2023-02-03T09:54:33;76164.59;;;-146.65;94.47
57094;BME280;42970;50.996;3.706;2023-02-03T09:57:04;76156.53;;;-146.65;94.77
57094;BME280;42970;50.996;3.706;2023-02-03T09:59:31;76154.50;;;-146.65;94.43
57094;BME280;42970;50.996;3.706;2023-02-03T10:04:26;76176.69;;;-146.65;95.07
57094;BME280;42970;50.996;3.706;2023-02-03T10:07:13;76168.63;;;-146.65;95.57
57094;BME280;42970;50.996;3.706;2023-02-03T10:09:53;76158.53;;;-146.65;95.69
57094;BME280;42970;50.996;3.706;2023-02-03T10:17:52;76132.31;;;-146.65;93.54
57094;BME280;42970;50.996;3.706;2023-02-03T10:20:23;76138.38;;;-146.65;94.28
57094;BME280;42970;50.996;3.706;2023-02-03T10:22:53;76132.31;;;-146.65;94.17
57094;BME280;42970;50.996;3.706;2023-02-03T10:28:08;76116.19;;;-146.65;93.60
57094;BME280;42970;50.996;3.706;2023-02-03T10:30:40;76122.22;;;-146.65;92.95
57094;BME280;42970;50.996;3.706;2023-02-03T10:33:10;76134.31;;;-146.65;93.89
57094;BME280;42970;50.996;3.706;2023-02-03T10:36:01;76148.44;;;-146.65;94.29
57094;BME280;42970;50.996;3.706;2023-02-03T10:38:25;76144.41;;;-146.65;95.73
57094;BME280;42970;50.996;3.706;2023-02-03T10:40:54;76142.41;;;-146.65;95.17
57094;BME280;42970;50.996;3.706;2023-02-03T10:43:20;76146.44;;;-146.65;94.97
57094;BME280;42970;50.996;3.706;2023-02-03T10:46:04;76132.31;;;-146.65;93.55
57094;BME280;42970;50.996;3.706;2023-02-03T10:48:29;76130.28;;;-146.65;94.12
57094;BME280;42970;50.996;3.706;2023-02-03T10:50:54;76124.25;;;-146.65;95.09
57094;BME280;42970;50.996;3.706;2023-02-03T10:53:22;76134.31;;;-146.65;94.59
57094;BME280;42970;50.996;3.706;2023-02-03T10:55:49;76124.25;;;-146.65;94.38
57094;BME280;42970;50.996;3.706;2023-02-03T10:58:21;76148.44;;;-146.65;94.52
57094;BME280;42970;50.996;3.706;2023-02-03T11:00:54;76158.53;;;-146.65;95.17
57094;BME280;42970;50.996;3.706;2023-02-03T11:03:22;76140.38;;;-146.65;95.57
57094;BME280;42970;50.996;3.706;2023-02-03T11:08:34;76160.56;;;-146.65;95.53
57094;BME280;42970;50.996;3.706;2023-02-03T11:11:33;76162.56;;;-146.65;95.68
57094;BME280;42970;50.996;3.706;2023-02-03T11:13:55;76166.59;;;-146.65;95.48
57094;BME280;42970;50.996;3.706;2023-02-03T11:16:34;76148.44;;;-146.65;95.37
57094;BME280;42970;50.996;3.706;2023-02-03T11:21:32;76150.47;;;-146.65;96.02
57094;BME280;42970;50.996;3.706;2023-02-03T11:26:55;76142.41;;;-146.65;96.64
57094;BME280;42970;50.996;3.706;2023-02-03T11:29:23;76146.44;;;-146.65;96.27
57094;BME280;42970;50.996;3.706;2023-02-03T11:31:50;76140.38;;;-146.65;96.47
57094;BME280;42970;50.996;3.706;2023-02-03T11:34:16;76144.41;;;-146.65;96.36
57094;BME280;42970;50.996;3.706;2023-02-03T11:36:43;76152.50;;;-146.65;96.39
57094;BME280;42970;50.996;3.706;2023-02-03T11:41:53;76154.50;;;-146.65;96.97
57094;BME280;42970;50.996;3.706;2023-02-03T11:44:19;76162.56;;;-146.65;97.17
57094;BME280;42970;50.996;3.706;2023-02-03T11:46:46;76152.50;;;-146.65;97.06
57094;BME280;42970;50.996;3.706;2023-02-03T11:49:28;76146.44;;;-146.65;96.57
57094;BME280;42970;50.996;3.706;2023-02-03T11:59:43;76104.06;;;-146.65;96.62
57094;BME280;42970;50.996;3.706;2023-02-03T12:10:15;76077.84;;;-146.65;95.17
57094;BME280;42970;50.996;3.706;2023-02-03T12:16:06;76045.56;;;-146.65;94.15
57094;BME280;42970;50.996;3.706;2023-02-03T12:26:14;76061.72;;;-146.65;92.75
57094;BME280;42970;50.996;3.706;2023-02-03T12:31:14;76049.59;;;-146.65;93.88
57094;BME280;42970;50.996;3.706;2023-02-03T12:33:45;76065.75;;;-146.65;94.50
57094;BME280;42970;50.996;3.706;2023-02-03T12:36:17;76085.91;;;-146.65;94.24
57094;BME280;42970;50.996;3.706;2023-02-03T12:41:11;76083.91;;;-146.65;95.33
57094;BME280;42970;50.996;3.706;2023-02-03T12:43:48;76104.06;;;-146.65;95.92
57094;BME280;42970;50.996;3.706;2023-02-03T12:51:14;76100.03;;;-146.65;95.57
57094;BME280;42970;50.996;3.706;2023-02-03T12:53:50;76100.03;;;-146.65;95.59
57094;BME280;42970;50.996;3.706;2023-02-03T12:56:21;76096.00;;;-146.65;95.51
57094;BME280;42970;50.996;3.706;2023-02-03T12:58:57;76077.84;;;-146.65;95.74
57094;BME280;42970;50.996;3.706;2023-02-03T13:01:25;76081.88;;;-146.65;95.58
57094;BME280;42970;50.996;3.706;2023-02-03T13:03:54;76069.78;;;-146.65;95.50
57094;BME280;42970;50.996;3.706;2023-02-03T13:13:59;76039.50;;;-146.65;92.59
57094;BME280;42970;50.996;3.706;2023-02-03T13:16:30;76019.34;;;-146.65;92.74
57094;BME280;42970;50.996;3.706;2023-02-03T13:19:02;76021.34;;;-146.65;91.52
57094;BME280;42970;50.996;3.706;2023-02-03T13:21:29;76009.25;;;-146.65;91.95
57094;BME280;42970;50.996;3.706;2023-02-03T13:23:54;76021.34;;;-146.65;90.74
57094;BME280;42970;50.996;3.706;2023-02-03T13:34:10;76021.34;;;-146.65;91.14
57094;BME280;42970;50.996;3.706;2023-02-03T13:36:46;76023.38;;;-146.65;90.55
57094;BME280;42970;50.996;3.706;2023-02-03T13:39:24;76035.47;;;-146.65;90.99
57094;BME280;42970;50.996;3.706;2023-02-03T13:44:20;76025.41;;;-146.65;90.93
57094;BME280;42970;50.996;3.706;2023-02-03T13:46:47;76025.41;;;-146.65;90.54
57094;BME280;42970;50.996;3.706;2023-02-03T13:49:26;76025.41;;;-146.65;90.66
57094;BME280;42970;50.996;3.706;2023-02-03T13:52:01;76031.44;;;-146.65;91.34
57094;BME280;42970;50.996;3.706;2023-02-03T13:54:35;76017.31;;;-146.65;91.32
57094;BME280;42970;50.996;3.706;2023-02-03T13:57:05;76023.38;;;-146.65;90.33
57094;BME280;42970;50.996;3.706;2023-02-03T13:59:42;76009.25;;;-146.65;91.07
57094;BME280;42970;50.996;3.706;2023-02-03T14:12:35;76049.59;;;-146.65;91.26
57094;BME280;42970;50.996;3.706;2023-02-03T14:22:53;76053.63;;;-146.65;90.99
57094;BME280;42970;50.996;3.706;2023-02-03T14:25:20;76051.63;;;-146.65;91.73
57094;BME280;42970;50.996;3.706;2023-02-03T14:27:46;76077.84;;;-146.65;91.93
57094;BME280;42970;50.996;3.706;2023-02-03T14:30:13;76077.84;;;-146.65;91.38
57094;BME280;42970;50.996;3.706;2023-02-03T14:32:47;76079.88;;;-146.65;91.51
57094;BME280;42970;50.996;3.706;2023-02-03T14:35:16;76069.78;;;-146.65;91.88
57094;BME280;42970;50.996;3.706;2023-02-03T14:37:53;76083.91;;;-146.65;91.57
57094;BME280;42970;50.996;3.706;2023-02-03T14:43:02;76069.78;;;-146.65;91.89
57094;BME280;42970;50.996;3.706;2023-02-03T14:51:08;76065.75;;;-146.65;90.94
57094;BME280;42970;50.996;3.706;2023-02-03T14:59:42;76055.66;;;-146.65;91.34
57094;BME280;42970;50.996;3.706;2023-02-03T15:02:17;76073.81;;;-146.65;91.41
57094;BME280;42970;50.996;3.706;2023-02-03T15:04:43;76067.75;;;-146.65;91.52